Portada
METAR-TAF:

METAR-TAF

Aeroports :

Weeze, Alemanya

latitud: 51-36-09N, longitud: 006-08-32E, altitud: 32 m

Observació

L'informe es va fer fa 27 minuts, a les 09:20 UTC
Vent 8 kt del Sud
Temperatura 8°C
Humitat 87%
Pressió 1005 hPa
Visibilitat 10 km o més
Cel ennuvolat a una alçada de 4200 ft

METAR: EDLV 160920Z 18008KT 9999 BKN042 08/06 Q1005

Hora: 10:47 (09:47 UTC)

Pronòstic

L'informe es va fer fa 4 hores i 47 minuts, a les 05:00 UTC
Pronòstic vàlid del 16 a les 06 UTC al 17 a les 06 UTC
Vent 6 kt del Sud/Sud-Est
Visibilitat 10 km o més
Cel ennuvolat a una alçada de 2000 ft
Temporalment
l' 16 a les 08 UTC al 16 a les 14 UTC
Cel ennuvolat a una alçada de 800 ft
pluja
Temporalment
l' 16 a les 14 UTC al 16 a les 21 UTC
Cel ennuvolat a una alçada de 800 ft

TAF: EDLV 160500Z 1606/1706 15006KT 9999 BKN020 TEMPO 1608/1614 RA BKN008 TEMPO 1614/1621 BKN008

Observacions i pronòstics meteorològics de més de 4000 aeroports (METAR i TAF).

Les estacions disponibles són els punts grocs i vermells al mapa.

Posi el ratolí al punt desitjat per veure el nom de l'estació.

Feu clic per veure les observacions i els pronòstics meteorològics.

Per canviar el mapa: feu clic els botons verds amb una creu de color negre per apropar; al botó verd amb un guió per allunyar la imatge; o en les fletxes verdes per a mapes adjacents.


METAR-TAF: